sensor_id;sensor_type;location;lat;lon;timestamp;temperature;humidity
16066;DHT22;8137;48.952;8.970;2023-04-03T00:01:33;4.40;99.90
16066;DHT22;8137;48.952;8.970;2023-04-03T00:03:59;4.40;99.90
16066;DHT22;8137;48.952;8.970;2023-04-03T00:06:25;4.30;99.90
16066;DHT22;8137;48.952;8.970;2023-04-03T00:08:51;4.30;99.90
16066;DHT22;8137;48.952;8.970;2023-04-03T00:11:17;4.40;99.90
16066;DHT22;8137;48.952;8.970;2023-04-03T00:13:43;4.40;99.90
16066;DHT22;8137;48.952;8.970;2023-04-03T00:16:09;4.30;99.90
16066;DHT22;8137;48.952;8.970;2023-04-03T00:18:37;4.30;99.90
16066;DHT22;8137;48.952;8.970;2023-04-03T00:21:03;4.30;99.90
16066;DHT22;8137;48.952;8.970;2023-04-03T00:23:29;4.20;99.90
16066;DHT22;8137;48.952;8.970;2023-04-03T00:25:54;4.30;99.90
16066;DHT22;8137;48.952;8.970;2023-04-03T00:28:20;4.30;99.90
16066;DHT22;8137;48.952;8.970;2023-04-03T00:30:48;4.30;99.90
16066;DHT22;8137;48.952;8.970;2023-04-03T00:33:14;4.30;99.90
16066;DHT22;8137;48.952;8.970;2023-04-03T00:35:40;4.30;99.90
16066;DHT22;8137;48.952;8.970;2023-04-03T00:38:05;4.30;99.90
16066;DHT22;8137;48.952;8.970;2023-04-03T00:40:36;4.20;99.90
16066;DHT22;8137;48.952;8.970;2023-04-03T00:43:13;4.20;99.90
16066;DHT22;8137;48.952;8.970;2023-04-03T00:45:43;4.30;99.90
16066;DHT22;8137;48.952;8.970;2023-04-03T00:48:12;4.30;99.90
16066;DHT22;8137;48.952;8.970;2023-04-03T00:50:41;4.20;99.90
16066;DHT22;8137;48.952;8.970;2023-04-03T00:53:10;4.20;99.90
16066;DHT22;8137;48.952;8.970;2023-04-03T00:55:37;4.20;99.90
16066;DHT22;8137;48.952;8.970;2023-04-03T00:58:05;4.10;99.90
16066;DHT22;8137;48.952;8.970;2023-04-03T01:00:32;4.10;99.90
16066;DHT22;8137;48.952;8.970;2023-04-03T01:02:59;4.10;99.90
16066;DHT22;8137;48.952;8.970;2023-04-03T01:05:25;4.10;99.90
16066;DHT22;8137;48.952;8.970;2023-04-03T01:07:51;4.10;99.90
16066;DHT22;8137;48.952;8.970;2023-04-03T01:10:18;4.10;99.90
16066;DHT22;8137;48.952;8.970;2023-04-03T01:12:47;4.10;99.90
16066;DHT22;8137;48.952;8.970;2023-04-03T01:15:22;4.00;99.90
16066;DHT22;8137;48.952;8.970;2023-04-03T01:17:49;4.00;99.90
16066;DHT22;8137;48.952;8.970;2023-04-03T01:25:37;3.90;99.90
16066;DHT22;8137;48.952;8.970;2023-04-03T01:28:10;3.90;99.90
16066;DHT22;8137;48.952;8.970;2023-04-03T01:30:50;3.80;99.90
16066;DHT22;8137;48.952;8.970;2023-04-03T01:33:16;3.80;99.90
16066;DHT22;8137;48.952;8.970;2023-04-03T01:35:42;3.90;99.90
16066;DHT22;8137;48.952;8.970;2023-04-03T01:38:07;3.80;99.90
16066;DHT22;8137;48.952;8.970;2023-04-03T01:40:33;3.80;99.90
16066;DHT22;8137;48.952;8.970;2023-04-03T01:42:59;3.80;99.90
16066;DHT22;8137;48.952;8.970;2023-04-03T01:45:24;3.80;99.90
16066;DHT22;8137;48.952;8.970;2023-04-03T01:47:50;3.80;99.90
16066;DHT22;8137;48.952;8.970;2023-04-03T01:50:16;3.70;99.90
16066;DHT22;8137;48.952;8.970;2023-04-03T01:52:41;3.70;99.90
16066;DHT22;8137;48.952;8.970;2023-04-03T01:55:07;3.70;99.90
16066;DHT22;8137;48.952;8.970;2023-04-03T01:57:33;3.70;99.90
16066;DHT22;8137;48.952;8.970;2023-04-03T01:59:59;3.80;99.90
16066;DHT22;8137;48.952;8.970;2023-04-03T02:02:24;3.80;99.90
16066;DHT22;8137;48.952;8.970;2023-04-03T02:04:50;3.80;99.90
16066;DHT22;8137;48.952;8.970;2023-04-03T02:07:15;3.80;99.90
16066;DHT22;8137;48.952;8.970;2023-04-03T02:09:41;3.80;99.90
16066;DHT22;8137;48.952;8.970;2023-04-03T02:12:07;3.80;99.90
16066;DHT22;8137;48.952;8.970;2023-04-03T02:14:32;3.80;99.90
16066;DHT22;8137;48.952;8.970;2023-04-03T02:16:58;3.80;99.90
16066;DHT22;8137;48.952;8.970;2023-04-03T02:19:26;3.80;99.90
16066;DHT22;8137;48.952;8.970;2023-04-03T02:21:51;3.80;99.90
16066;DHT22;8137;48.952;8.970;2023-04-03T02:24:17;3.90;99.90
16066;DHT22;8137;48.952;8.970;2023-04-03T02:26:42;3.90;99.90
16066;DHT22;8137;48.952;8.970;2023-04-03T02:29:08;3.90;99.90
16066;DHT22;8137;48.952;8.970;2023-04-03T02:31:33;3.90;99.90
16066;DHT22;8137;48.952;8.970;2023-04-03T02:33:59;3.90;99.90
16066;DHT22;8137;48.952;8.970;2023-04-03T02:36:25;3.90;99.90
16066;DHT22;8137;48.952;8.970;2023-04-03T02:38:50;3.90;99.90
16066;DHT22;8137;48.952;8.970;2023-04-03T02:41:16;3.90;99.90
16066;DHT22;8137;48.952;8.970;2023-04-03T02:43:41;3.90;99.90
16066;DHT22;8137;48.952;8.970;2023-04-03T02:46:07;3.90;99.90
16066;DHT22;8137;48.952;8.970;2023-04-03T02:48:33;3.90;99.90
16066;DHT22;8137;48.952;8.970;2023-04-03T02:50:59;3.90;99.90
16066;DHT22;8137;48.952;8.970;2023-04-03T02:53:25;3.90;99.90
16066;DHT22;8137;48.952;8.970;2023-04-03T02:55:50;3.90;99.90
16066;DHT22;8137;48.952;8.970;2023-04-03T02:58:16;3.90;99.90
16066;DHT22;8137;48.952;8.970;2023-04-03T03:00:42;3.90;99.90
16066;DHT22;8137;48.952;8.970;2023-04-03T03:03:07;3.90;99.90
16066;DHT22;8137;48.952;8.970;2023-04-03T03:05:33;3.80;99.90
16066;DHT22;8137;48.952;8.970;2023-04-03T03:07:58;3.80;99.90
16066;DHT22;8137;48.952;8.970;2023-04-03T03:10:25;3.90;99.90
16066;DHT22;8137;48.952;8.970;2023-04-03T03:12:50;3.90;99.90
16066;DHT22;8137;48.952;8.970;2023-04-03T03:15:16;3.90;99.90
16066;DHT22;8137;48.952;8.970;2023-04-03T03:17:43;3.90;99.90
16066;DHT22;8137;48.952;8.970;2023-04-03T03:20:09;3.90;99.90
16066;DHT22;8137;48.952;8.970;2023-04-03T03:22:35;3.90;99.90
16066;DHT22;8137;48.952;8.970;2023-04-03T03:25:01;3.90;99.90
16066;DHT22;8137;48.952;8.970;2023-04-03T03:27:27;3.90;99.90
16066;DHT22;8137;48.952;8.970;2023-04-03T03:29:53;3.90;99.90
16066;DHT22;8137;48.952;8.970;2023-04-03T03:32:19;3.90;99.90
16066;DHT22;8137;48.952;8.970;2023-04-03T03:34:44;3.90;99.90
16066;DHT22;8137;48.952;8.970;2023-04-03T03:37:10;3.90;99.90
16066;DHT22;8137;48.952;8.970;2023-04-03T03:39:36;3.90;99.90
16066;DHT22;8137;48.952;8.970;2023-04-03T03:42:01;3.80;99.90
16066;DHT22;8137;48.952;8.970;2023-04-03T03:44:27;3.90;99.90
16066;DHT22;8137;48.952;8.970;2023-04-03T03:46:54;3.90;99.90
16066;DHT22;8137;48.952;8.970;2023-04-03T03:49:22;3.90;99.90
16066;DHT22;8137;48.952;8.970;2023-04-03T03:51:47;4.00;99.90
16066;DHT22;8137;48.952;8.970;2023-04-03T03:54:13;3.90;99.90
16066;DHT22;8137;48.952;8.970;2023-04-03T03:56:39;3.90;99.90
16066;DHT22;8137;48.952;8.970;2023-04-03T03:59:05;3.90;99.90
16066;DHT22;8137;48.952;8.970;2023-04-03T04:01:31;3.90;99.90
16066;DHT22;8137;48.952;8.970;2023-04-03T04:03:57;3.90;99.90
16066;DHT22;8137;48.952;8.970;2023-04-03T04:06:23;3.90;99.90
16066;DHT22;8137;48.952;8.970;2023-04-03T04:08:48;3.80;99.90
16066;DHT22;8137;48.952;8.970;2023-04-03T04:11:14;3.80;99.90
16066;DHT22;8137;48.952;8.970;2023-04-03T04:13:40;3.90;99.90
16066;DHT22;8137;48.952;8.970;2023-04-03T04:16:06;3.90;99.90
16066;DHT22;8137;48.952;8.970;2023-04-03T04:18:32;3.90;99.90
16066;DHT22;8137;48.952;8.970;2023-04-03T04:20:57;3.90;99.90
16066;DHT22;8137;48.952;8.970;2023-04-03T04:23:23;3.80;99.90
16066;DHT22;8137;48.952;8.970;2023-04-03T04:25:50;3.90;99.90
16066;DHT22;8137;48.952;8.970;2023-04-03T04:28:16;3.80;99.90
16066;DHT22;8137;48.952;8.970;2023-04-03T04:30:42;3.80;99.90
16066;DHT22;8137;48.952;8.970;2023-04-03T04:33:08;3.70;99.90
16066;DHT22;8137;48.952;8.970;2023-04-03T04:35:34;3.60;99.90
16066;DHT22;8137;48.952;8.970;2023-04-03T04:37:59;3.50;99.90
16066;DHT22;8137;48.952;8.970;2023-04-03T04:40:26;3.50;99.90
16066;DHT22;8137;48.952;8.970;2023-04-03T04:42:52;3.50;99.90
16066;DHT22;8137;48.952;8.970;2023-04-03T04:45:17;3.60;99.90
16066;DHT22;8137;48.952;8.970;2023-04-03T04:47:43;3.50;99.90
16066;DHT22;8137;48.952;8.970;2023-04-03T04:50:10;3.50;99.90
16066;DHT22;8137;48.952;8.970;2023-04-03T04:52:37;3.50;99.90
16066;DHT22;8137;48.952;8.970;2023-04-03T04:55:03;3.50;99.90
16066;DHT22;8137;48.952;8.970;2023-04-03T04:57:28;3.50;99.90
16066;DHT22;8137;48.952;8.970;2023-04-03T04:59:54;3.50;99.90
16066;DHT22;8137;48.952;8.970;2023-04-03T05:02:19;3.50;99.90
16066;DHT22;8137;48.952;8.970;2023-04-03T05:04:45;3.50;99.90
16066;DHT22;8137;48.952;8.970;2023-04-03T05:07:10;3.50;99.90
16066;DHT22;8137;48.952;8.970;2023-04-03T05:09:36;3.40;99.90
16066;DHT22;8137;48.952;8.970;2023-04-03T05:12:02;3.40;99.90
16066;DHT22;8137;48.952;8.970;2023-04-03T05:14:28;3.40;99.90
16066;DHT22;8137;48.952;8.970;2023-04-03T05:16:54;3.40;99.90
16066;DHT22;8137;48.952;8.970;2023-04-03T05:19:22;3.50;99.90
16066;DHT22;8137;48.952;8.970;2023-04-03T05:21:48;3.40;99.90
16066;DHT22;8137;48.952;8.970;2023-04-03T05:24:14;3.40;99.90
16066;DHT22;8137;48.952;8.970;2023-04-03T05:26:41;3.40;99.90
16066;DHT22;8137;48.952;8.970;2023-04-03T05:29:06;3.40;99.90
16066;DHT22;8137;48.952;8.970;2023-04-03T05:31:32;3.40;99.90
16066;DHT22;8137;48.952;8.970;2023-04-03T05:33:58;3.50;99.90
16066;DHT22;8137;48.952;8.970;2023-04-03T05:36:24;3.50;99.90
16066;DHT22;8137;48.952;8.970;2023-04-03T05:38:50;3.50;99.90
16066;DHT22;8137;48.952;8.970;2023-04-03T05:41:16;3.50;99.90
16066;DHT22;8137;48.952;8.970;2023-04-03T05:43:42;3.60;99.90
16066;DHT22;8137;48.952;8.970;2023-04-03T05:46:12;3.60;99.90
16066;DHT22;8137;48.952;8.970;2023-04-03T05:48:38;3.70;99.90
16066;DHT22;8137;48.952;8.970;2023-04-03T05:51:05;3.70;99.90
16066;DHT22;8137;48.952;8.970;2023-04-03T05:53:35;3.70;99.90
16066;DHT22;8137;48.952;8.970;2023-04-03T05:56:03;3.70;99.90
16066;DHT22;8137;48.952;8.970;2023-04-03T05:58:28;3.80;99.90
16066;DHT22;8137;48.952;8.970;2023-04-03T06:00:54;3.80;99.90
16066;DHT22;8137;48.952;8.970;2023-04-03T06:03:19;3.90;99.90
16066;DHT22;8137;48.952;8.970;2023-04-03T06:05:45;3.80;99.90
16066;DHT22;8137;48.952;8.970;2023-04-03T06:08:11;3.70;99.90
16066;DHT22;8137;48.952;8.970;2023-04-03T06:10:38;3.80;99.90
16066;DHT22;8137;48.952;8.970;2023-04-03T06:13:03;3.80;99.90
16066;DHT22;8137;48.952;8.970;2023-04-03T06:15:29;3.80;99.90
16066;DHT22;8137;48.952;8.970;2023-04-03T06:17:55;3.70;99.90
16066;DHT22;8137;48.952;8.970;2023-04-03T06:20:21;3.80;99.90
16066;DHT22;8137;48.952;8.970;2023-04-03T06:22:47;3.80;99.90
16066;DHT22;8137;48.952;8.970;2023-04-03T06:25:13;3.80;99.90
16066;DHT22;8137;48.952;8.970;2023-04-03T06:27:38;3.80;99.90
16066;DHT22;8137;48.952;8.970;2023-04-03T06:30:05;3.90;99.90
16066;DHT22;8137;48.952;8.970;2023-04-03T06:32:31;3.90;99.90
16066;DHT22;8137;48.952;8.970;2023-04-03T06:34:57;4.00;99.90
16066;DHT22;8137;48.952;8.970;2023-04-03T06:37:23;4.00;99.90
16066;DHT22;8137;48.952;8.970;2023-04-03T06:39:51;4.10;99.90
16066;DHT22;8137;48.952;8.970;2023-04-03T06:42:17;4.30;99.90
16066;DHT22;8137;48.952;8.970;2023-04-03T06:44:43;4.30;99.90
16066;DHT22;8137;48.952;8.970;2023-04-03T06:47:13;4.40;99.90
16066;DHT22;8137;48.952;8.970;2023-04-03T06:49:39;4.40;99.90
16066;DHT22;8137;48.952;8.970;2023-04-03T06:52:05;4.50;99.90
16066;DHT22;8137;48.952;8.970;2023-04-03T06:54:31;4.50;99.90
16066;DHT22;8137;48.952;8.970;2023-04-03T06:56:57;4.50;99.90
16066;DHT22;8137;48.952;8.970;2023-04-03T06:59:23;4.60;99.90
16066;DHT22;8137;48.952;8.970;2023-04-03T07:01:49;4.70;99.90
16066;DHT22;8137;48.952;8.970;2023-04-03T07:04:15;4.60;99.90
16066;DHT22;8137;48.952;8.970;2023-04-03T07:06:40;4.60;99.90
16066;DHT22;8137;48.952;8.970;2023-04-03T07:09:08;4.60;99.90
16066;DHT22;8137;48.952;8.970;2023-04-03T07:11:34;4.60;99.90
16066;DHT22;8137;48.952;8.970;2023-04-03T07:14:00;4.80;99.90
16066;DHT22;8137;48.952;8.970;2023-04-03T07:16:25;4.80;99.90
16066;DHT22;8137;48.952;8.970;2023-04-03T07:18:51;4.80;99.90
16066;DHT22;8137;48.952;8.970;2023-04-03T07:21:16;4.80;99.90
16066;DHT22;8137;48.952;8.970;2023-04-03T07:23:42;4.70;99.90
16066;DHT22;8137;48.952;8.970;2023-04-03T07:26:08;4.80;99.90
16066;DHT22;8137;48.952;8.970;2023-04-03T07:28:34;4.80;99.90
16066;DHT22;8137;48.952;8.970;2023-04-03T07:31:05;4.70;99.90
16066;DHT22;8137;48.952;8.970;2023-04-03T07:33:34;4.70;99.90
16066;DHT22;8137;48.952;8.970;2023-04-03T07:36:00;4.90;99.90
16066;DHT22;8137;48.952;8.970;2023-04-03T07:38:26;5.00;99.90
16066;DHT22;8137;48.952;8.970;2023-04-03T07:40:52;5.10;99.90
16066;DHT22;8137;48.952;8.970;2023-04-03T07:43:19;5.10;99.90
16066;DHT22;8137;48.952;8.970;2023-04-03T07:45:47;5.30;99.90
16066;DHT22;8137;48.952;8.970;2023-04-03T07:48:16;5.40;99.90
16066;DHT22;8137;48.952;8.970;2023-04-03T07:50:43;5.50;99.90
16066;DHT22;8137;48.952;8.970;2023-04-03T07:53:08;5.70;99.90
16066;DHT22;8137;48.952;8.970;2023-04-03T07:55:34;6.00;99.90
16066;DHT22;8137;48.952;8.970;2023-04-03T07:58:05;6.10;99.90
16066;DHT22;8137;48.952;8.970;2023-04-03T08:00:31;6.30;99.90
16066;DHT22;8137;48.952;8.970;2023-04-03T08:02:57;6.30;99.90
16066;DHT22;8137;48.952;8.970;2023-04-03T08:05:22;6.30;99.90
16066;DHT22;8137;48.952;8.970;2023-04-03T08:07:48;6.40;99.90
16066;DHT22;8137;48.952;8.970;2023-04-03T08:10:14;6.50;99.90
16066;DHT22;8137;48.952;8.970;2023-04-03T08:12:41;6.60;99.90
16066;DHT22;8137;48.952;8.970;2023-04-03T08:15:07;6.70;99.90
16066;DHT22;8137;48.952;8.970;2023-04-03T08:17:34;6.40;99.90
16066;DHT22;8137;48.952;8.970;2023-04-03T08:20:00;6.20;99.90
16066;DHT22;8137;48.952;8.970;2023-04-03T08:22:26;6.20;99.90
16066;DHT22;8137;48.952;8.970;2023-04-03T08:24:51;6.30;99.90
16066;DHT22;8137;48.952;8.970;2023-04-03T08:27:17;6.50;99.90
16066;DHT22;8137;48.952;8.970;2023-04-03T08:29:42;6.40;99.90
16066;DHT22;8137;48.952;8.970;2023-04-03T08:32:08;6.50;99.90
16066;DHT22;8137;48.952;8.970;2023-04-03T08:34:35;6.50;99.90
16066;DHT22;8137;48.952;8.970;2023-04-03T08:37:02;6.60;99.90
16066;DHT22;8137;48.952;8.970;2023-04-03T08:39:28;6.60;99.90
16066;DHT22;8137;48.952;8.970;2023-04-03T08:41:56;6.60;99.90
16066;DHT22;8137;48.952;8.970;2023-04-03T08:44:45;6.80;99.90
16066;DHT22;8137;48.952;8.970;2023-04-03T08:50:01;7.10;99.90
16066;DHT22;8137;48.952;8.970;2023-04-03T08:55:43;7.30;99.90
16066;DHT22;8137;48.952;8.970;2023-04-03T09:03:40;7.20;99.90
16066;DHT22;8137;48.952;8.970;2023-04-03T09:06:12;7.30;99.90
16066;DHT22;8137;48.952;8.970;2023-04-03T09:08:43;7.50;99.90
16066;DHT22;8137;48.952;8.970;2023-04-03T09:13:55;7.70;99.90
16066;DHT22;8137;48.952;8.970;2023-04-03T09:19:21;7.40;99.90
16066;DHT22;8137;48.952;8.970;2023-04-03T09:21:48;7.50;99.90
16066;DHT22;8137;48.952;8.970;2023-04-03T09:24:15;7.40;99.90
16066;DHT22;8137;48.952;8.970;2023-04-03T09:27:04;7.50;99.90
16066;DHT22;8137;48.952;8.970;2023-04-03T09:29:31;7.80;99.90
16066;DHT22;8137;48.952;8.970;2023-04-03T09:32:00;8.00;99.90
16066;DHT22;8137;48.952;8.970;2023-04-03T09:34:46;8.10;99.90
16066;DHT22;8137;48.952;8.970;2023-04-03T09:37:34;7.90;99.90
16066;DHT22;8137;48.952;8.970;2023-04-03T09:40:01;7.60;99.90
16066;DHT22;8137;48.952;8.970;2023-04-03T09:42:27;7.70;99.90
16066;DHT22;8137;48.952;8.970;2023-04-03T09:44:55;7.80;99.90
16066;DHT22;8137;48.952;8.970;2023-04-03T09:47:27;7.60;99.90
16066;DHT22;8137;48.952;8.970;2023-04-03T09:52:39;7.30;99.90
16066;DHT22;8137;48.952;8.970;2023-04-03T09:55:08;7.10;99.90
16066;DHT22;8137;48.952;8.970;2023-04-03T09:57:34;6.90;99.90
16066;DHT22;8137;48.952;8.970;2023-04-03T10:00:01;6.90;99.90
16066;DHT22;8137;48.952;8.970;2023-04-03T10:04:58;7.30;99.90
16066;DHT22;8137;48.952;8.970;2023-04-03T10:09:58;7.30;99.90
16066;DHT22;8137;48.952;8.970;2023-04-03T10:12:24;7.40;99.90
16066;DHT22;8137;48.952;8.970;2023-04-03T10:20:07;8.10;99.90
16066;DHT22;8137;48.952;8.970;2023-04-03T10:22:42;8.10;99.90
16066;DHT22;8137;48.952;8.970;2023-04-03T10:25:38;8.30;99.90
16066;DHT22;8137;48.952;8.970;2023-04-03T10:28:20;8.10;99.90
16066;DHT22;8137;48.952;8.970;2023-04-03T10:31:32;7.90;99.90
16066;DHT22;8137;48.952;8.970;2023-04-03T10:34:04;8.30;99.90
16066;DHT22;8137;48.952;8.970;2023-04-03T10:42:40;8.20;99.90
16066;DHT22;8137;48.952;8.970;2023-04-03T10:45:30;8.10;99.90
16066;DHT22;8137;48.952;8.970;2023-04-03T10:48:02;8.20;99.90
16066;DHT22;8137;48.952;8.970;2023-04-03T10:53:31;8.10;99.90
16066;DHT22;8137;48.952;8.970;2023-04-03T10:56:35;8.20;99.90
16066;DHT22;8137;48.952;8.970;2023-04-03T10:59:07;8.40;99.90
16066;DHT22;8137;48.952;8.970;2023-04-03T11:01:41;8.20;99.90
16066;DHT22;8137;48.952;8.970;2023-04-03T11:04:09;8.00;99.90
16066;DHT22;8137;48.952;8.970;2023-04-03T11:06:39;7.90;99.90
16066;DHT22;8137;48.952;8.970;2023-04-03T11:09:32;7.70;99.90
16066;DHT22;8137;48.952;8.970;2023-04-03T11:12:05;7.60;99.90
16066;DHT22;8137;48.952;8.970;2023-04-03T11:14:34;7.80;99.90
16066;DHT22;8137;48.952;8.970;2023-04-03T11:20:26;8.00;99.90
16066;DHT22;8137;48.952;8.970;2023-04-03T11:25:44;8.20;99.90
16066;DHT22;8137;48.952;8.970;2023-04-03T11:28:14;8.40;99.90
16066;DHT22;8137;48.952;8.970;2023-04-03T11:36:31;8.40;99.90
16066;DHT22;8137;48.952;8.970;2023-04-03T11:39:01;8.20;99.90
16066;DHT22;8137;48.952;8.970;2023-04-03T11:41:32;8.10;99.90
16066;DHT22;8137;48.952;8.970;2023-04-03T11:44:01;7.70;99.90
16066;DHT22;8137;48.952;8.970;2023-04-03T11:46:51;7.60;99.90
16066;DHT22;8137;48.952;8.970;2023-04-03T12:08:46;7.90;99.90
16066;DHT22;8137;48.952;8.970;2023-04-03T12:40:37;8.00;94.70
16066;DHT22;8137;48.952;8.970;2023-04-03T12:43:23;8.10;91.70
16066;DHT22;8137;48.952;8.970;2023-04-03T12:48:38;8.00;88.40
16066;DHT22;8137;48.952;8.970;2023-04-03T12:51:05;7.80;90.70
16066;DHT22;8137;48.952;8.970;2023-04-03T12:53:35;7.90;90.40
16066;DHT22;8137;48.952;8.970;2023-04-03T12:56:26;8.20;91.00
16066;DHT22;8137;48.952;8.970;2023-04-03T12:58:54;8.40;90.10
16066;DHT22;8137;48.952;8.970;2023-04-03T13:01:24;8.40;90.00
16066;DHT22;8137;48.952;8.970;2023-04-03T13:03:54;8.50;93.10
16066;DHT22;8137;48.952;8.970;2023-04-03T13:06:24;8.50;89.00
16066;DHT22;8137;48.952;8.970;2023-04-03T13:08:54;8.70;88.80
16066;DHT22;8137;48.952;8.970;2023-04-03T13:11:24;8.80;83.60
16066;DHT22;8137;48.952;8.970;2023-04-03T13:13:55;8.90;84.20
16066;DHT22;8137;48.952;8.970;2023-04-03T13:16:21;9.10;81.20
16066;DHT22;8137;48.952;8.970;2023-04-03T13:18:52;9.20;78.80
16066;DHT22;8137;48.952;8.970;2023-04-03T13:21:24;9.10;79.60
16066;DHT22;8137;48.952;8.970;2023-04-03T13:23:53;8.80;69.70
16066;DHT22;8137;48.952;8.970;2023-04-03T13:26:21;8.70;67.30
16066;DHT22;8137;48.952;8.970;2023-04-03T13:28:48;8.40;67.20
16066;DHT22;8137;48.952;8.970;2023-04-03T13:31:34;8.40;66.70
16066;DHT22;8137;48.952;8.970;2023-04-03T13:36:40;8.60;66.60
16066;DHT22;8137;48.952;8.970;2023-04-03T13:39:24;8.70;68.80
16066;DHT22;8137;48.952;8.970;2023-04-03T13:41:57;8.90;66.60
16066;DHT22;8137;48.952;8.970;2023-04-03T13:46:53;8.50;63.80
16066;DHT22;8137;48.952;8.970;2023-04-03T13:49:40;8.50;66.20
16066;DHT22;8137;48.952;8.970;2023-04-03T14:00:36;8.70;58.20
16066;DHT22;8137;48.952;8.970;2023-04-03T14:03:13;8.80;58.80
16066;DHT22;8137;48.952;8.970;2023-04-03T14:05:38;8.80;56.60
16066;DHT22;8137;48.952;8.970;2023-04-03T14:08:04;8.80;60.90
16066;DHT22;8137;48.952;8.970;2023-04-03T14:10:31;8.80;55.90
16066;DHT22;8137;48.952;8.970;2023-04-03T14:12:57;8.80;54.80
16066;DHT22;8137;48.952;8.970;2023-04-03T14:15:26;8.60;57.30
16066;DHT22;8137;48.952;8.970;2023-04-03T14:17:52;8.40;57.70
16066;DHT22;8137;48.952;8.970;2023-04-03T14:20:21;8.40;58.70
16066;DHT22;8137;48.952;8.970;2023-04-03T14:22:48;8.50;58.30
16066;DHT22;8137;48.952;8.970;2023-04-03T14:25:15;8.50;59.70
16066;DHT22;8137;48.952;8.970;2023-04-03T14:27:46;8.50;59.70
16066;DHT22;8137;48.952;8.970;2023-04-03T14:30:22;8.60;60.80
16066;DHT22;8137;48.952;8.970;2023-04-03T14:32:48;8.60;58.40
16066;DHT22;8137;48.952;8.970;2023-04-03T14:35:15;8.40;55.70
16066;DHT22;8137;48.952;8.970;2023-04-03T14:37:41;8.30;56.10
16066;DHT22;8137;48.952;8.970;2023-04-03T14:40:11;8.40;55.80
16066;DHT22;8137;48.952;8.970;2023-04-03T14:42:38;8.50;57.40
16066;DHT22;8137;48.952;8.970;2023-04-03T14:45:06;8.40;56.50
16066;DHT22;8137;48.952;8.970;2023-04-03T14:47:33;8.50;54.60
16066;DHT22;8137;48.952;8.970;2023-04-03T14:50:02;8.40;52.70
16066;DHT22;8137;48.952;8.970;2023-04-03T14:52:32;8.40;52.70
16066;DHT22;8137;48.952;8.970;2023-04-03T14:54:59;8.30;50.20
16066;DHT22;8137;48.952;8.970;2023-04-03T14:57:27;8.20;49.80
16066;DHT22;8137;48.952;8.970;2023-04-03T14:59:53;8.30;48.80
16066;DHT22;8137;48.952;8.970;2023-04-03T15:02:33;8.10;50.60
16066;DHT22;8137;48.952;8.970;2023-04-03T15:05:00;8.20;51.70
16066;DHT22;8137;48.952;8.970;2023-04-03T15:07:30;8.40;52.60
16066;DHT22;8137;48.952;8.970;2023-04-03T15:09:56;8.40;49.60
16066;DHT22;8137;48.952;8.970;2023-04-03T15:12:24;8.60;50.70
16066;DHT22;8137;48.952;8.970;2023-04-03T15:14:50;8.90;53.30
16066;DHT22;8137;48.952;8.970;2023-04-03T15:17:19;9.20;51.80
16066;DHT22;8137;48.952;8.970;2023-04-03T15:19:45;9.10;49.00
16066;DHT22;8137;48.952;8.970;2023-04-03T15:22:16;8.80;48.50
16066;DHT22;8137;48.952;8.970;2023-04-03T15:24:43;8.40;47.10
16066;DHT22;8137;48.952;8.970;2023-04-03T15:27:10;7.90;46.10
16066;DHT22;8137;48.952;8.970;2023-04-03T15:29:37;7.60;47.30
16066;DHT22;8137;48.952;8.970;2023-04-03T15:32:03;7.50;47.40
16066;DHT22;8137;48.952;8.970;2023-04-03T15:34:29;7.80;48.70
16066;DHT22;8137;48.952;8.970;2023-04-03T15:36:55;8.20;49.80
16066;DHT22;8137;48.952;8.970;2023-04-03T15:39:20;8.40;46.10
16066;DHT22;8137;48.952;8.970;2023-04-03T15:41:47;8.70;55.20
16066;DHT22;8137;48.952;8.970;2023-04-03T15:44:12;8.90;46.40
16066;DHT22;8137;48.952;8.970;2023-04-03T15:46:39;8.80;45.30
16066;DHT22;8137;48.952;8.970;2023-04-03T15:49:05;8.60;44.10
16066;DHT22;8137;48.952;8.970;2023-04-03T15:51:31;8.30;42.10
16066;DHT22;8137;48.952;8.970;2023-04-03T15:53:57;8.20;44.30
16066;DHT22;8137;48.952;8.970;2023-04-03T15:56:22;8.10;43.70
16066;DHT22;8137;48.952;8.970;2023-04-03T15:58:48;8.20;43.60
16066;DHT22;8137;48.952;8.970;2023-04-03T16:01:14;8.30;43.40
16066;DHT22;8137;48.952;8.970;2023-04-03T16:03:41;8.50;43.60
16066;DHT22;8137;48.952;8.970;2023-04-03T16:06:11;8.50;43.70
16066;DHT22;8137;48.952;8.970;2023-04-03T16:08:37;8.70;44.50
16066;DHT22;8137;48.952;8.970;2023-04-03T16:11:02;8.60;41.00
16066;DHT22;8137;48.952;8.970;2023-04-03T16:13:28;8.40;40.90
16066;DHT22;8137;48.952;8.970;2023-04-03T16:15:54;8.30;41.40
16066;DHT22;8137;48.952;8.970;2023-04-03T16:18:20;8.20;41.60
16066;DHT22;8137;48.952;8.970;2023-04-03T16:20:46;8.00;41.10
16066;DHT22;8137;48.952;8.970;2023-04-03T16:23:12;7.90;40.40
16066;DHT22;8137;48.952;8.970;2023-04-03T16:25:38;7.90;41.80
16066;DHT22;8137;48.952;8.970;2023-04-03T16:28:04;7.90;41.30
16066;DHT22;8137;48.952;8.970;2023-04-03T16:30:29;7.90;43.10
16066;DHT22;8137;48.952;8.970;2023-04-03T16:32:56;7.90;41.80
16066;DHT22;8137;48.952;8.970;2023-04-03T16:35:22;7.80;43.10
16066;DHT22;8137;48.952;8.970;2023-04-03T16:37:48;7.70;43.20
16066;DHT22;8137;48.952;8.970;2023-04-03T16:40:14;7.50;44.10
16066;DHT22;8137;48.952;8.970;2023-04-03T16:42:40;7.50;45.90
16066;DHT22;8137;48.952;8.970;2023-04-03T16:45:06;7.50;43.70
16066;DHT22;8137;48.952;8.970;2023-04-03T16:47:32;7.40;44.50
16066;DHT22;8137;48.952;8.970;2023-04-03T16:49:58;7.30;42.90
16066;DHT22;8137;48.952;8.970;2023-04-03T16:52:24;7.40;43.20
16066;DHT22;8137;48.952;8.970;2023-04-03T16:54:49;7.40;44.30
16066;DHT22;8137;48.952;8.970;2023-04-03T16:57:17;7.30;43.90
16066;DHT22;8137;48.952;8.970;2023-04-03T16:59:42;7.20;44.50
16066;DHT22;8137;48.952;8.970;2023-04-03T17:02:08;7.20;45.60
16066;DHT22;8137;48.952;8.970;2023-04-03T17:04:33;7.10;46.60
16066;DHT22;8137;48.952;8.970;2023-04-03T17:07:00;7.00;45.90
16066;DHT22;8137;48.952;8.970;2023-04-03T17:09:30;6.80;45.50
16066;DHT22;8137;48.952;8.970;2023-04-03T17:11:56;6.70;46.40
16066;DHT22;8137;48.952;8.970;2023-04-03T17:14:21;6.60;46.90
16066;DHT22;8137;48.952;8.970;2023-04-03T17:16:47;6.60;47.10
16066;DHT22;8137;48.952;8.970;2023-04-03T17:19:12;6.60;47.20
16066;DHT22;8137;48.952;8.970;2023-04-03T17:21:38;6.70;47.50
16066;DHT22;8137;48.952;8.970;2023-04-03T17:24:06;6.70;48.90
16066;DHT22;8137;48.952;8.970;2023-04-03T17:26:34;6.70;49.10
16066;DHT22;8137;48.952;8.970;2023-04-03T17:29:02;6.60;50.20
16066;DHT22;8137;48.952;8.970;2023-04-03T17:31:27;6.70;49.40
16066;DHT22;8137;48.952;8.970;2023-04-03T17:33:53;6.60;49.10
16066;DHT22;8137;48.952;8.970;2023-04-03T17:36:18;6.60;48.70
16066;DHT22;8137;48.952;8.970;2023-04-03T17:38:44;6.60;49.80
16066;DHT22;8137;48.952;8.970;2023-04-03T17:41:11;6.50;49.80
16066;DHT22;8137;48.952;8.970;2023-04-03T17:43:37;6.50;49.20
16066;DHT22;8137;48.952;8.970;2023-04-03T17:46:10;6.50;48.30
16066;DHT22;8137;48.952;8.970;2023-04-03T17:48:37;6.50;48.80
16066;DHT22;8137;48.952;8.970;2023-04-03T17:51:04;6.40;49.20
16066;DHT22;8137;48.952;8.970;2023-04-03T17:53:30;6.30;48.70
16066;DHT22;8137;48.952;8.970;2023-04-03T17:55:56;6.20;48.30
16066;DHT22;8137;48.952;8.970;2023-04-03T17:58:21;6.20;47.70
16066;DHT22;8137;48.952;8.970;2023-04-03T18:00:47;6.00;47.20
16066;DHT22;8137;48.952;8.970;2023-04-03T18:03:12;5.90;47.70
16066;DHT22;8137;48.952;8.970;2023-04-03T18:05:38;5.80;48.10
16066;DHT22;8137;48.952;8.970;2023-04-03T18:08:04;5.70;48.50